Time;durP1;ratioP1;P1;durP2;ratioP2;P2;SDS_P1;SDS_P2;PMS_P1;PMS_P2;Temp;Humidity;BMP_temperature;BMP_pressure;BME280_temperature;BME280_humidity;BME280_pressure;Samples;Min_cycle;Max_cycle;Signal;HPM_P1;HPM_P2
2021/07/17 00:00:33;;;;;;;1999.90;999.90;;;18.00;99.90;;;;;;5086878;28;20674;-71
2021/07/17 00:03:00;;;;;;;1999.90;999.90;;;18.00;99.90;;;;;;5076536;28;20273;-71
2021/07/17 00:05:26;;;;;;;1999.90;999.90;;;17.90;99.90;;;;;;5076011;28;20174;-71
2021/07/17 00:07:52;;;;;;;1999.90;999.90;;;17.90;99.90;;;;;;5058256;28;20463;-71
2021/07/17 00:10:40;;;;;;;1999.90;999.90;;;17.80;99.90;;;;;;5075860;28;20181;-71
2021/07/17 00:13:07;;;;;;;1999.90;999.90;;;17.70;99.90;;;;;;5075796;28;20167;-71
2021/07/17 00:15:33;;;;;;;1999.90;999.90;;;17.70;99.90;;;;;;5075959;28;20768;-71
2021/07/17 00:17:59;;;;;;;1999.90;999.90;;;17.60;99.90;;;;;;5075477;28;20467;-71
2021/07/17 00:20:26;;;;;;;1999.90;999.90;;;17.60;99.90;;;;;;5075741;28;20429;-71
2021/07/17 00:22:52;;;;;;;1999.90;999.90;;;17.60;99.90;;;;;;5076106;28;20402;-71
2021/07/17 00:25:19;;;;;;;1999.90;999.90;;;17.60;99.90;;;;;;5075600;28;20402;-71
2021/07/17 00:27:45;;;;;;;1999.90;999.90;;;17.50;99.90;;;;;;5075334;28;20220;-71
2021/07/17 00:30:12;;;;;;;1999.90;999.90;;;17.50;99.90;;;;;;5075575;28;20437;-71
2021/07/17 00:32:38;;;;;;;1999.90;999.90;;;17.50;99.90;;;;;;5075149;28;20484;-70
2021/07/17 00:35:06;;;;;;;1999.90;999.90;;;17.40;99.90;;;;;;5075101;28;20782;-71
2021/07/17 00:37:32;;;;;;;1999.90;999.90;;;17.40;99.90;;;;;;5075412;28;20194;-71
2021/07/17 00:39:58;;;;;;;1999.90;999.90;;;17.40;99.90;;;;;;5075404;28;20412;-71
2021/07/17 00:42:23;;;;;;;1999.90;999.90;;;17.50;99.90;;;;;;5075449;28;20991;-71
2021/07/17 00:44:49;;;;;;;1999.90;999.90;;;17.50;99.90;;;;;;5074857;28;20176;-71
2021/07/17 00:47:15;;;;;;;1999.90;999.90;;;17.50;99.90;;;;;;5074788;28;20202;-71
2021/07/17 00:49:41;;;;;;;1999.90;999.90;;;17.60;99.90;;;;;;5074977;28;20279;-71
2021/07/17 00:52:07;;;;;;;1999.90;999.90;;;17.70;99.90;;;;;;5074838;28;20456;-71
2021/07/17 00:54:33;;;;;;;1999.90;999.90;;;17.70;99.90;;;;;;5074891;28;20164;-71
2021/07/17 00:57:01;;;;;;;1999.90;999.90;;;17.80;99.90;;;;;;5075005;28;20965;-71
2021/07/17 00:59:31;;;;;;;1999.90;999.90;;;18.00;99.90;;;;;;5075338;28;20434;-71
2021/07/17 01:01:58;;;;;;;1999.90;999.90;;;18.00;99.90;;;;;;5074700;28;20418;-71
2021/07/17 01:04:27;;;;;;;1999.90;999.90;;;18.00;99.90;;;;;;5073192;28;20585;-71
2021/07/17 01:06:52;;;;;;;1999.90;999.90;;;18.00;99.90;;;;;;5074435;28;20497;-71
2021/07/17 01:09:18;;;;;;;1999.90;999.90;;;18.00;99.90;;;;;;5074469;28;20471;-71
2021/07/17 01:11:44;;;;;;;1999.90;999.90;;;17.90;99.90;;;;;;5074417;28;20542;-71
2021/07/17 01:14:10;;;;;;;1999.90;999.90;;;17.80;99.90;;;;;;5074015;28;20198;-71
2021/07/17 01:16:38;;;;;;;1999.90;999.90;;;17.80;99.90;;;;;;5074120;28;20863;-71
2021/07/17 01:19:04;;;;;;;1999.90;999.90;;;17.70;99.90;;;;;;5074209;28;20400;-71
2021/07/17 01:21:30;;;;;;;1999.90;999.90;;;17.70;99.90;;;;;;5074191;28;20409;-71
2021/07/17 01:23:55;;;;;;;1999.90;999.90;;;17.70;99.90;;;;;;5073906;28;20177;-71
2021/07/17 01:26:22;;;;;;;1999.90;999.90;;;17.70;99.90;;;;;;5074131;28;20426;-71
2021/07/17 01:28:47;;;;;;;1999.90;999.90;;;17.70;99.90;;;;;;5073921;28;20186;-71
2021/07/17 01:31:14;;;;;;;1999.90;999.90;;;17.70;99.90;;;;;;5073685;28;20454;-71
2021/07/17 01:33:40;;;;;;;1999.90;999.90;;;17.70;99.90;;;;;;5074255;28;20166;-71
2021/07/17 01:36:06;;;;;;;1999.90;999.90;;;17.60;99.90;;;;;;5074118;28;20963;-71
2021/07/17 01:38:32;;;;;;;1999.90;999.90;;;17.60;99.90;;;;;;5074134;28;20251;-71
2021/07/17 01:40:57;;;;;;;1999.90;999.90;;;17.60;99.90;;;;;;5073909;28;20173;-71
2021/07/17 01:43:23;;;;;;;1999.90;999.90;;;17.50;99.90;;;;;;5074224;28;20184;-71
2021/07/17 01:45:48;;;;;;;1999.90;999.90;;;17.50;99.90;;;;;;5073641;28;20184;-71
2021/07/17 01:48:15;;;;;;;1999.90;999.90;;;17.50;99.90;;;;;;5073875;28;20206;-71
2021/07/17 01:50:42;;;;;;;1999.90;999.90;;;17.50;99.90;;;;;;5073952;28;20209;-71
2021/07/17 01:53:10;;;;;;;1999.90;999.90;;;17.50;99.90;;;;;;5073784;28;20748;-71
2021/07/17 01:55:37;;;;;;;1999.90;999.90;;;17.40;99.90;;;;;;5073405;28;20406;-71
2021/07/17 01:58:03;;;;;;;1999.90;999.90;;;17.40;99.90;;;;;;5073854;28;20518;-71
2021/07/17 02:00:29;;;;;;;1999.90;999.90;;;17.40;99.90;;;;;;5073621;28;20951;-71
2021/07/17 02:02:55;;;;;;;1999.90;999.90;;;17.40;99.90;;;;;;5073394;28;20407;-71
2021/07/17 02:05:23;;;;;;;1999.90;999.90;;;17.50;99.90;;;;;;5073095;28;20401;-71
2021/07/17 02:07:50;;;;;;;1999.90;999.90;;;17.40;99.90;;;;;;5073430;28;20186;-71
2021/07/17 02:10:21;;;;;;;1999.90;999.90;;;17.40;99.90;;;;;;5073135;28;20454;-71
2021/07/17 02:12:57;;;;;;;1999.90;999.90;;;17.50;99.90;;;;;;5073172;28;20402;-71
2021/07/17 02:15:23;;;;;;;1999.90;999.90;;;17.50;99.90;;;;;;5072445;28;20754;-71
2021/07/17 02:17:50;;;;;;;1999.90;999.90;;;17.50;99.90;;;;;;5072927;28;20466;-71
2021/07/17 02:20:16;;;;;;;1999.90;999.90;;;17.50;99.90;;;;;;5072746;28;20173;-71
2021/07/17 02:22:42;;;;;;;1999.90;999.90;;;17.50;99.90;;;;;;5072885;28;20399;-71
2021/07/17 02:25:08;;;;;;;1999.90;999.90;;;17.50;99.90;;;;;;5072555;28;20403;-71
2021/07/17 02:27:34;;;;;;;1999.90;999.90;;;17.50;99.90;;;;;;5072476;28;20462;-71
2021/07/17 02:30:00;;;;;;;1999.90;999.90;;;17.50;99.90;;;;;;5072757;28;20893;-71
2021/07/17 02:32:25;;;;;;;1999.90;999.90;;;17.50;99.90;;;;;;5072929;28;20206;-71
2021/07/17 02:34:51;;;;;;;1999.90;999.90;;;17.50;99.90;;;;;;5072605;28;20178;-71
2021/07/17 02:37:17;;;;;;;1999.90;999.90;;;17.50;99.90;;;;;;5072630;28;20193;-71
2021/07/17 02:39:43;;;;;;;1999.90;999.90;;;17.50;99.90;;;;;;5072990;28;20175;-71
2021/07/17 02:42:09;;;;;;;1999.90;999.90;;;17.40;99.90;;;;;;5072672;28;20781;-71
2021/07/17 02:44:35;;;;;;;1999.90;999.90;;;17.40;99.90;;;;;;5072543;28;20414;-71
2021/07/17 02:47:01;;;;;;;1999.90;999.90;;;17.40;99.90;;;;;;5072459;28;20487;-71
2021/07/17 02:49:26;;;;;;;1999.90;999.90;;;17.40;99.90;;;;;;5072991;28;20252;-71
2021/07/17 02:51:54;;;;;;;1999.90;999.90;;;17.30;99.90;;;;;;5072919;28;20202;-71
2021/07/17 02:54:20;;;;;;;1999.90;999.90;;;17.30;99.90;;;;;;5072645;28;20186;-71
2021/07/17 02:56:46;;;;;;;1999.90;999.90;;;17.30;99.90;;;;;;5072760;28;20425;-71
2021/07/17 02:59:12;;;;;;;1999.90;999.90;;;17.30;99.90;;;;;;5072833;28;20399;-71
2021/07/17 03:01:37;;;;;;;1999.90;999.90;;;17.30;99.90;;;;;;5072845;28;20537;-71
2021/07/17 03:04:03;;;;;;;1999.90;999.90;;;17.30;99.90;;;;;;5072590;28;20170;-71
2021/07/17 03:06:29;;;;;;;1999.90;999.90;;;17.20;99.90;;;;;;5072612;28;20184;-71
2021/07/17 03:08:54;;;;;;;1999.90;999.90;;;17.20;99.90;;;;;;5072730;28;20182;-71
2021/07/17 03:11:20;;;;;;;1999.90;999.90;;;17.20;99.90;;;;;;5072951;28;20451;-71
2021/07/17 03:13:47;;;;;;;1999.90;999.90;;;17.20;99.90;;;;;;5072466;28;20593;-71
2021/07/17 03:16:12;;;;;;;1999.90;999.90;;;17.20;99.90;;;;;;5072612;28;20197;-71
2021/07/17 03:18:38;;;;;;;1999.90;999.90;;;17.20;99.90;;;;;;5072848;28;20432;-71
2021/07/17 03:21:03;;;;;;;1999.90;999.90;;;17.20;99.90;;;;;;5072924;28;20180;-71
2021/07/17 03:23:29;;;;;;;1999.90;999.90;;;17.20;99.90;;;;;;5072800;28;20176;-71
2021/07/17 03:25:55;;;;;;;1999.90;999.90;;;17.20;99.90;;;;;;5072772;28;20178;-71
2021/07/17 03:28:20;;;;;;;1999.90;999.90;;;17.20;99.90;;;;;;5076508;28;20199;-71
2021/07/17 03:30:46;;;;;;;1999.90;999.90;;;17.20;99.90;;;;;;5076127;28;20275;-71
2021/07/17 03:33:11;;;;;;;1999.90;999.90;;;17.20;99.90;;;;;;5076889;28;20172;-71
2021/07/17 03:35:37;;;;;;;1999.90;999.90;;;17.20;99.90;;;;;;5076231;28;20179;-71
2021/07/17 03:38:03;;;;;;;1999.90;999.90;;;17.20;99.90;;;;;;5076451;28;20191;-71
2021/07/17 03:40:28;;;;;;;1999.90;999.90;;;17.20;99.90;;;;;;5076144;28;20541;-71
2021/07/17 03:42:54;;;;;;;1999.90;999.90;;;17.20;99.90;;;;;;5075779;28;20675;-71
2021/07/17 03:45:19;;;;;;;1999.90;999.90;;;17.20;99.90;;;;;;5075726;28;20514;-71
2021/07/17 03:47:45;;;;;;;1999.90;999.90;;;17.20;99.90;;;;;;5075916;28;20187;-71
2021/07/17 03:50:11;;;;;;;1999.90;999.90;;;17.20;99.90;;;;;;5080359;28;20181;-71
2021/07/17 03:52:37;;;;;;;1999.90;999.90;;;17.20;99.90;;;;;;5085997;28;20211;-72
2021/07/17 03:55:03;;;;;;;1999.90;999.90;;;17.20;99.90;;;;;;5087307;28;20416;-72
2021/07/17 03:57:29;;;;;;;1999.90;999.90;;;17.20;99.90;;;;;;5087445;28;20191;-72
2021/07/17 03:59:54;;;;;;;1999.90;999.90;;;17.20;99.90;;;;;;5087446;28;20481;-72
2021/07/17 04:02:21;;;;;;;1999.90;999.90;;;17.20;99.90;;;;;;5086884;28;20182;-70
2021/07/17 04:04:48;;;;;;;1999.90;999.90;;;17.20;99.90;;;;;;5090220;28;20174;-72
2021/07/17 04:07:14;;;;;;;1999.90;999.90;;;17.20;99.90;;;;;;5086564;28;20463;-72
2021/07/17 04:09:40;;;;;;;1999.90;999.90;;;17.20;99.90;;;;;;5086828;28;20413;-72
2021/07/17 04:12:06;;;;;;;1999.90;999.90;;;17.20;99.90;;;;;;5086358;28;20202;-72
2021/07/17 04:14:32;;;;;;;1999.90;999.90;;;17.20;99.90;;;;;;5086766;28;20234;-72
2021/07/17 04:16:58;;;;;;;1999.90;999.90;;;17.10;99.90;;;;;;5085759;28;20495;-71
2021/07/17 04:19:23;;;;;;;1999.90;999.90;;;17.10;99.90;;;;;;5088507;28;20803;-71
2021/07/17 04:21:49;;;;;;;1999.90;999.90;;;17.20;99.90;;;;;;5087686;28;20191;-72
2021/07/17 04:24:14;;;;;;;1999.90;999.90;;;17.10;99.90;;;;;;5087168;28;20183;-71
2021/07/17 04:26:40;;;;;;;1999.90;999.90;;;17.20;99.90;;;;;;5086968;28;20173;-71
2021/07/17 04:29:07;;;;;;;1999.90;999.90;;;17.20;99.90;;;;;;5085695;28;20171;-70
2021/07/17 04:31:33;;;;;;;1999.90;999.90;;;17.30;99.90;;;;;;5084932;28;20281;-72
2021/07/17 04:33:59;;;;;;;1999.90;999.90;;;17.30;99.90;;;;;;5085173;28;20465;-71
2021/07/17 04:36:24;;;;;;;1999.90;999.90;;;17.20;99.90;;;;;;5081802;28;20407;-71
2021/07/17 04:38:50;;;;;;;1999.90;999.90;;;17.20;99.90;;;;;;5075335;28;20194;-71
2021/07/17 04:41:15;;;;;;;1999.90;999.90;;;17.20;99.90;;;;;;5075428;28;20181;-71
2021/07/17 04:43:41;;;;;;;1999.90;999.90;;;17.30;99.90;;;;;;5074940;28;20175;-71
2021/07/17 04:46:07;;;;;;;1999.90;999.90;;;17.30;99.90;;;;;;5075197;28;20253;-71
2021/07/17 04:48:32;;;;;;;1999.90;999.90;;;17.30;99.90;;;;;;5075182;28;20676;-71
2021/07/17 04:50:58;;;;;;;1999.90;999.90;;;17.40;99.90;;;;;;5074898;28;20254;-71
2021/07/17 04:53:23;;;;;;;1999.90;999.90;;;17.40;99.90;;;;;;5074437;28;20571;-71
2021/07/17 04:55:49;;;;;;;1999.90;999.90;;;17.50;99.90;;;;;;5074232;28;20165;-71
2021/07/17 04:58:15;;;;;;;1999.90;999.90;;;17.50;99.90;;;;;;5074671;28;20231;-71
2021/07/17 05:00:40;;;;;;;1999.90;999.90;;;17.50;99.90;;;;;;5074868;28;20168;-71
2021/07/17 05:03:06;;;;;;;1999.90;999.90;;;17.50;99.90;;;;;;5074725;28;20651;-71
2021/07/17 05:05:31;;;;;;;1999.90;999.90;;;17.60;99.90;;;;;;5074507;28;20640;-71
2021/07/17 05:07:57;;;;;;;1999.90;999.90;;;17.60;99.90;;;;;;5074884;28;20695;-71
2021/07/17 05:10:24;;;;;;;1999.90;999.90;;;17.60;99.90;;;;;;5074546;28;20268;-71
2021/07/17 05:12:51;;;;;;;1999.90;999.90;;;17.50;99.90;;;;;;5074744;28;20316;-71
2021/07/17 05:15:17;;;;;;;1999.90;999.90;;;17.50;99.90;;;;;;5074088;28;20399;-71
2021/07/17 05:17:43;;;;;;;1999.90;999.90;;;17.50;99.90;;;;;;5074186;28;20439;-71
2021/07/17 05:20:11;;;;;;;1999.90;999.90;;;17.50;99.90;;;;;;5074118;28;20401;-71
2021/07/17 05:22:37;;;;;;;1999.90;999.90;;;17.50;99.90;;;;;;5074432;28;20777;-71
2021/07/17 05:25:04;;;;;;;1999.90;999.90;;;17.50;99.90;;;;;;5074514;28;20413;-71
2021/07/17 05:27:29;;;;;;;1999.90;999.90;;;17.50;99.90;;;;;;5074413;28;20221;-71
2021/07/17 05:29:55;;;;;;;1999.90;999.90;;;17.60;99.90;;;;;;5074703;28;20400;-71
2021/07/17 05:32:21;;;;;;;1999.90;999.90;;;17.60;99.90;;;;;;5075078;28;20285;-71
2021/07/17 05:34:46;;;;;;;1999.90;999.90;;;17.60;99.90;;;;;;5074393;28;20170;-71
2021/07/17 05:37:12;;;;;;;1999.90;999.90;;;17.60;99.90;;;;;;5074743;28;20652;-71
2021/07/17 05:39:38;;;;;;;1999.90;999.90;;;17.70;99.90;;;;;;5073552;28;20167;-71
2021/07/17 05:42:05;;;;;;;1999.90;999.90;;;17.80;99.90;;;;;;5073576;28;20176;-71
2021/07/17 05:44:31;;;;;;;1999.90;999.90;;;17.90;99.90;;;;;;5073979;28;20403;-71
2021/07/17 05:46:57;;;;;;;1999.90;999.90;;;18.00;99.90;;;;;;5073421;28;20421;-71
2021/07/17 05:49:23;;;;;;;1999.90;999.90;;;18.00;99.90;;;;;;5073076;28;20427;-71
2021/07/17 05:51:48;;;;;;;1999.90;999.90;;;18.10;99.90;;;;;;5073313;28;20988;-71
2021/07/17 05:54:15;;;;;;;1999.90;999.90;;;18.10;99.90;;;;;;5073298;28;20163;-71
2021/07/17 05:56:41;;;;;;;1999.90;999.90;;;18.30;99.90;;;;;;5073245;28;20170;-71
2021/07/17 05:59:06;;;;;;;1999.90;999.90;;;18.40;99.90;;;;;;5080605;28;20411;-72
2021/07/17 06:01:32;;;;;;;1999.90;999.90;;;18.40;99.90;;;;;;5082527;28;20183;-72
2021/07/17 06:03:58;;;;;;;1999.90;999.90;;;18.40;99.90;;;;;;5082942;28;20187;-71
2021/07/17 06:06:23;;;;;;;1999.90;999.90;;;18.50;99.90;;;;;;5082957;28;20687;-71
2021/07/17 06:08:49;;;;;;;1999.90;999.90;;;18.50;99.90;;;;;;5082368;28;20547;-72
2021/07/17 06:11:15;;;;;;;1999.90;999.90;;;18.50;99.90;;;;;;5082520;28;20194;-72
2021/07/17 06:13:40;;;;;;;1999.90;999.90;;;18.40;99.90;;;;;;5082144;28;20204;-69
2021/07/17 06:16:06;;;;;;;1999.90;999.90;;;18.40;99.90;;;;;;5075438;28;20167;-71
2021/07/17 06:18:32;;;;;;;1999.90;999.90;;;18.40;99.90;;;;;;5073613;28;20242;-71
2021/07/17 06:20:59;;;;;;;1999.90;999.90;;;18.40;99.90;;;;;;5073392;28;20200;-71
2021/07/17 06:23:24;;;;;;;1999.90;999.90;;;18.40;99.90;;;;;;5073408;28;20986;-71
2021/07/17 06:25:50;;;;;;;1999.90;999.90;;;18.50;99.90;;;;;;5072754;28;20514;-71
2021/07/17 06:28:16;;;;;;;1999.90;999.90;;;18.40;99.90;;;;;;5072848;28;20698;-71
2021/07/17 06:30:41;;;;;;;1999.90;999.90;;;18.40;99.90;;;;;;5073030;28;20223;-71
2021/07/17 06:33:07;;;;;;;1999.90;999.90;;;18.40;99.90;;;;;;5072920;28;20674;-71
2021/07/17 06:35:33;;;;;;;1999.90;999.90;;;18.40;99.90;;;;;;5072752;28;20163;-71
2021/07/17 06:37:58;;;;;;;1999.90;999.90;;;18.50;99.90;;;;;;5073008;28;20489;-71
2021/07/17 06:40:24;;;;;;;1999.90;999.90;;;18.40;99.90;;;;;;5072699;28;20162;-72
2021/07/17 06:42:50;;;;;;;1999.90;999.90;;;18.50;99.90;;;;;;5071887;28;20168;-72
2021/07/17 06:45:20;;;;;;;1999.90;999.90;;;18.50;99.90;;;;;;5071644;28;20532;-72
2021/07/17 06:47:46;;;;;;;1999.90;999.90;;;18.50;99.90;;;;;;5071731;28;20433;-71
2021/07/17 06:50:14;;;;;;;1999.90;999.90;;;18.50;99.90;;;;;;5071780;28;21007;-71
2021/07/17 06:52:40;;;;;;;1999.90;999.90;;;18.50;99.90;;;;;;5071699;28;21055;-72
2021/07/17 06:55:08;;;;;;;1999.90;999.90;;;18.60;99.90;;;;;;5071437;28;20492;-72
2021/07/17 06:57:38;;;;;;;1999.90;999.90;;;18.60;99.90;;;;;;5071632;28;20421;-72
2021/07/17 07:00:14;;;;;;;1999.90;999.90;;;18.70;99.90;;;;;;5071831;28;20405;-72
2021/07/17 07:02:39;;;;;;;1999.90;999.90;;;18.70;99.90;;;;;;5074714;28;20428;-72
2021/07/17 07:05:06;;;;;;;1999.90;999.90;;;18.70;99.90;;;;;;5075536;28;20405;-71
2021/07/17 07:07:32;;;;;;;1999.90;999.90;;;18.60;99.90;;;;;;5075655;28;20210;-71
2021/07/17 07:09:58;;;;;;;1999.90;999.90;;;18.70;99.90;;;;;;5075529;28;20915;-72
2021/07/17 07:12:24;;;;;;;1999.90;999.90;;;18.70;99.90;;;;;;5075602;28;20913;-72
2021/07/17 07:14:49;;;;;;;1999.90;999.90;;;18.70;99.90;;;;;;5075274;28;20167;-72
2021/07/17 07:17:15;;;;;;;1999.90;999.90;;;18.60;99.90;;;;;;5075305;28;20202;-72
2021/07/17 07:19:40;;;;;;;1999.90;999.90;;;18.60;99.90;;;;;;5075523;28;20187;-72
2021/07/17 07:22:06;;;;;;;1999.90;999.90;;;18.60;99.90;;;;;;5075491;28;20633;-72
2021/07/17 07:24:32;;;;;;;1999.90;999.90;;;18.70;99.90;;;;;;5075094;28;20170;-72
2021/07/17 07:26:58;;;;;;;1999.90;999.90;;;18.70;99.90;;;;;;5075230;28;20195;-73
2021/07/17 07:29:24;;;;;;;1999.90;999.90;;;18.60;99.90;;;;;;5075300;28;20174;-72
2021/07/17 07:31:54;;;;;;;1999.90;999.90;;;18.60;99.90;;;;;;5075099;28;20458;-71
2021/07/17 07:34:20;;;;;;;1999.90;999.90;;;18.50;99.90;;;;;;5074902;28;20441;-72
2021/07/17 07:36:47;;;;;;;1999.90;999.90;;;18.40;99.90;;;;;;5075067;28;20476;-72
2021/07/17 07:39:13;;;;;;;1999.90;999.90;;;18.40;99.90;;;;;;5075047;28;20895;-72
2021/07/17 07:41:39;;;;;;;1999.90;999.90;;;18.40;99.90;;;;;;5075044;28;20469;-72
2021/07/17 07:44:05;;;;;;;1999.90;999.90;;;18.50;99.90;;;;;;5074695;28;20179;-72
2021/07/17 07:46:33;;;;;;;1999.90;999.90;;;18.50;99.90;;;;;;5074907;28;20537;-71
2021/07/17 07:48:59;;;;;;;1999.90;999.90;;;18.60;99.90;;;;;;5074990;28;20416;-73
2021/07/17 07:51:25;;;;;;;1999.90;999.90;;;18.70;99.90;;;;;;5074796;28;20456;-72
2021/07/17 07:53:51;;;;;;;1999.90;999.90;;;18.80;99.90;;;;;;5074518;28;20484;-72
2021/07/17 07:56:17;;;;;;;1999.90;999.90;;;18.80;99.90;;;;;;5074708;28;20542;-72
2021/07/17 07:58:42;;;;;;;1999.90;999.90;;;18.80;99.90;;;;;;5074681;28;20190;-72
2021/07/17 08:01:08;;;;;;;1999.90;999.90;;;18.80;99.90;;;;;;5074623;28;20179;-72
2021/07/17 08:03:34;;;;;;;1999.90;999.90;;;18.90;99.90;;;;;;5074658;28;20508;-72
2021/07/17 08:05:59;;;;;;;1999.90;999.90;;;19.00;99.90;;;;;;5074359;28;20260;-72
2021/07/17 08:08:25;;;;;;;1999.90;999.90;;;19.20;99.90;;;;;;5074401;28;20185;-72
2021/07/17 08:10:51;;;;;;;1999.90;999.90;;;19.20;99.90;;;;;;5074415;28;20752;-72
2021/07/17 08:13:16;;;;;;;1999.90;999.90;;;19.10;99.90;;;;;;5074065;28;20555;-71
2021/07/17 08:15:42;;;;;;;1999.90;999.90;;;19.10;99.90;;;;;;5074120;28;20531;-72
2021/07/17 08:18:08;;;;;;;1999.90;999.90;;;19.00;99.90;;;;;;5074204;28;20294;-72
2021/07/17 08:20:35;;;;;;;1999.90;999.90;;;19.10;99.90;;;;;;5074459;28;20263;-72
2021/07/17 08:23:01;;;;;;;1999.90;999.90;;;19.30;99.90;;;;;;5074213;28;20409;-73
2021/07/17 08:25:26;;;;;;;1999.90;999.90;;;19.30;99.90;;;;;;5073830;28;20406;-72
2021/07/17 08:27:52;;;;;;;1999.90;999.90;;;19.50;99.90;;;;;;5074146;28;20194;-72
2021/07/17 08:30:18;;;;;;;1999.90;999.90;;;19.50;99.90;;;;;;5074205;28;20656;-72
2021/07/17 08:32:43;;;;;;;1999.90;999.90;;;19.50;99.90;;;;;;5074024;28;20295;-72
2021/07/17 08:35:09;;;;;;;1999.90;999.90;;;19.40;99.90;;;;;;5073959;28;20198;-72
2021/07/17 08:37:35;;;;;;;1999.90;999.90;;;19.40;99.90;;;;;;5073920;28;20191;-72
2021/07/17 08:40:06;;;;;;;1999.90;999.90;;;19.50;99.90;;;;;;5074033;28;20167;-72
2021/07/17 08:42:34;;;;;;;1999.90;999.90;;;19.60;99.90;;;;;;5073814;28;20182;-73
2021/07/17 08:45:03;;;;;;;1999.90;999.90;;;19.70;99.90;;;;;;5073634;28;20800;-72
2021/07/17 08:47:35;;;;;;;1999.90;999.90;;;19.80;99.90;;;;;;5073833;28;20928;-72
2021/07/17 08:50:03;;;;;;;1999.90;999.90;;;19.60;99.90;;;;;;5073953;28;20413;-72
2021/07/17 08:52:31;;;;;;;1999.90;999.90;;;19.50;99.90;;;;;;5073654;28;20546;-72
2021/07/17 08:55:03;;;;;;;1999.90;999.90;;;19.60;99.90;;;;;;5073434;28;20904;-72
2021/07/17 08:57:33;;;;;;;1999.90;999.90;;;19.70;99.90;;;;;;5073625;28;20438;-72
2021/07/17 09:00:00;;;;;;;1999.90;999.90;;;19.80;99.90;;;;;;5073804;28;20415;-72
2021/07/17 09:02:26;;;;;;;1999.90;999.90;;;19.80;99.90;;;;;;5073607;28;20426;-72
2021/07/17 09:04:52;;;;;;;1999.90;999.90;;;19.80;99.90;;;;;;5073156;28;20500;-71
2021/07/17 09:07:18;;;;;;;1999.90;999.90;;;19.80;99.90;;;;;;5073232;28;20518;-72
2021/07/17 09:09:43;;;;;;;1999.90;999.90;;;19.90;99.90;;;;;;5071873;28;20181;-72
2021/07/17 09:12:24;;;;;;;1999.90;999.90;;;19.90;99.90;;;;;;5072338;28;20212;-72
2021/07/17 09:14:50;;;;;;;1999.90;999.90;;;20.00;99.90;;;;;;5073038;28;20222;-72
2021/07/17 09:17:30;;;;;;;1999.90;999.90;;;20.20;99.90;;;;;;5072197;28;20448;-71
2021/07/17 09:19:59;;;;;;;1999.90;999.90;;;20.50;99.90;;;;;;5072737;28;20791;-71
2021/07/17 09:22:39;;;;;;;1999.90;999.90;;;20.60;99.90;;;;;;5082535;28;20473;-71
2021/07/17 09:25:15;;;;;;;1999.90;999.90;;;20.50;99.90;;;;;;5071574;28;20415;-72
2021/07/17 09:27:41;;;;;;;1999.90;999.90;;;20.40;99.90;;;;;;5069301;28;20986;-72
2021/07/17 09:30:43;;;;;;;1999.90;999.90;;;20.30;99.90;;;;;;5068713;28;20827;-72
2021/07/17 09:33:08;;;;;;;1999.90;999.90;;;20.30;99.90;;;;;;4967277;28;20995;-73
2021/07/17 09:35:38;;;;;;;1999.90;999.90;;;20.50;99.90;;;;;;5055806;28;21241;-72
2021/07/17 09:38:07;;;;;;;1999.90;999.90;;;20.60;99.90;;;;;;5079885;28;20179;-72
2021/07/17 09:40:48;;;;;;;1999.90;999.90;;;20.80;99.90;;;;;;5068181;28;20911;-72
2021/07/17 09:43:35;;;;;;;1999.90;999.90;;;21.10;99.90;;;;;;5068097;28;20413;-73
2021/07/17 09:46:16;;;;;;;1999.90;999.90;;;21.40;99.90;;;;;;5068766;28;20416;-73
2021/07/17 09:48:49;;;;;;;1999.90;999.90;;;21.70;99.90;;;;;;5068867;28;20418;-73
2021/07/17 09:51:22;;;;;;;1999.90;999.90;;;21.70;99.90;;;;;;5068533;28;20455;-73
2021/07/17 09:53:51;;;;;;;1999.90;999.90;;;21.70;99.90;;;;;;5068225;28;20526;-73
2021/07/17 09:56:19;;;;;;;1999.90;999.90;;;21.80;99.90;;;;;;5067667;28;20423;-72
2021/07/17 09:58:46;;;;;;;1999.90;999.90;;;21.90;99.90;;;;;;5068009;28;20512;-73
2021/07/17 10:01:16;;;;;;;1999.90;999.90;;;22.30;99.90;;;;;;5071616;28;20417;-72
2021/07/17 10:03:42;;;;;;;1999.90;999.90;;;22.60;99.90;;;;;;5072306;28;20993;-72
2021/07/17 10:06:09;;;;;;;1999.90;999.90;;;22.80;99.90;;;;;;5071119;28;20428;-72
2021/07/17 10:08:35;;;;;;;1999.90;999.90;;;22.70;99.90;;;;;;5081485;28;20924;-73
2021/07/17 10:11:11;;;;;;;1999.90;999.90;;;22.50;99.90;;;;;;5082455;28;20520;-71
2021/07/17 10:13:41;;;;;;;1999.90;999.90;;;22.50;99.90;;;;;;5083163;28;20427;-72
2021/07/17 10:16:23;;;;;;;1999.90;999.90;;;22.40;99.90;;;;;;5082742;28;20417;-72
2021/07/17 10:18:51;;;;;;;1999.90;999.90;;;22.30;99.90;;;;;;5082491;28;20508;-72
2021/07/17 10:21:17;;;;;;;1999.90;999.90;;;22.00;99.90;;;;;;5081910;28;20402;-71
2021/07/17 10:23:44;;;;;;;1999.90;999.90;;;21.90;99.90;;;;;;5083506;28;20417;-72
2021/07/17 10:26:10;;;;;;;1999.90;999.90;;;22.00;99.90;;;;;;5081291;28;20480;-72
2021/07/17 10:28:36;;;;;;;1999.90;999.90;;;22.10;99.90;;;;;;5071264;28;20517;-72
2021/07/17 10:31:02;;;;;;;1999.90;999.90;;;22.40;99.90;;;;;;5072744;28;20460;-72
2021/07/17 10:33:31;;;;;;;1999.90;999.90;;;22.80;99.90;;;;;;5071118;28;20416;-72
2021/07/17 10:36:00;;;;;;;1999.90;999.90;;;23.00;99.90;;;;;;5070110;28;20418;-72
2021/07/17 10:38:29;;;;;;;1999.90;999.90;;;23.20;99.90;;;;;;5071842;28;20411;-72
2021/07/17 10:40:56;;;;;;;1999.90;999.90;;;23.40;99.90;;;;;;5070364;28;20412;-72
2021/07/17 10:43:22;;;;;;;1999.90;999.90;;;23.60;99.90;;;;;;5071609;28;20418;-72
2021/07/17 10:45:48;;;;;;;1999.90;999.90;;;23.80;99.90;;;;;;5071276;28;20404;-72
2021/07/17 10:48:24;;;;;;;1999.90;999.90;;;23.70;99.90;;;;;;5074215;28;20425;-73
2021/07/17 10:50:50;;;;;;;1999.90;999.90;;;23.50;99.90;;;;;;5077768;28;20410;-73
2021/07/17 10:53:45;;;;;;;1999.90;999.90;;;23.50;99.90;;;;;;5081544;28;20562;-70
2021/07/17 10:56:29;;;;;;;1999.90;999.90;;;23.70;99.90;;;;;;5081342;28;20245;-71
2021/07/17 10:58:56;;;;;;;1999.90;999.90;;;24.00;99.90;;;;;;5080864;28;20460;-70
2021/07/17 11:01:22;;;;;;;1999.90;999.90;;;24.10;99.90;;;;;;5080309;28;20442;-72
2021/07/17 11:03:48;;;;;;;1999.90;999.90;;;24.30;99.90;;;;;;5074243;28;20448;-72
2021/07/17 11:06:33;;;;;;;1999.90;999.90;;;24.60;99.90;;;;;;5067682;28;20413;-72
2021/07/17 11:09:19;;;;;;;1999.90;999.90;;;24.80;99.90;;;;;;5067518;28;20463;-72
2021/07/17 11:11:44;;;;;;;1999.90;999.90;;;24.60;99.90;;;;;;5075257;28;20456;-72
2021/07/17 11:14:13;;;;;;;1999.90;999.90;;;24.40;99.90;;;;;;5078495;28;20438;-71
2021/07/17 11:16:44;;;;;;;1999.90;999.90;;;24.10;99.90;;;;;;5068604;28;20194;-71
2021/07/17 11:19:27;;;;;;;1999.90;999.90;;;24.10;99.90;;;;;;5065340;28;20412;-72
2021/07/17 11:22:08;;;;;;;1999.90;999.90;;;24.00;99.90;;;;;;5065985;28;20455;-72
2021/07/17 11:24:34;;;;;;;1999.90;999.90;;;24.10;99.90;;;;;;5065051;28;20454;-73
2021/07/17 11:27:13;;;;;;;1999.90;999.90;;;24.20;99.90;;;;;;5065532;28;20440;-72
2021/07/17 11:29:41;;;;;;;1999.90;999.90;;;24.00;99.90;;;;;;5065523;28;20257;-72
2021/07/17 11:32:08;;;;;;;1999.90;999.90;;;24.20;99.90;;;;;;5065154;28;20444;-72
2021/07/17 11:34:38;;;;;;;1999.90;999.90;;;24.60;99.90;;;;;;5066397;28;20817;-72
2021/07/17 11:37:07;;;;;;;1999.90;999.90;;;24.80;99.90;;;;;;5064353;28;20448;-71
2021/07/17 11:39:35;;;;;;;1999.90;999.90;;;24.90;99.90;;;;;;5065812;28;20405;-71
2021/07/17 11:42:03;;;;;;;1999.90;999.90;;;25.00;99.90;;;;;;5065935;28;20463;-71
2021/07/17 11:44:31;;;;;;;1999.90;999.90;;;24.90;99.90;;;;;;5066537;28;20450;-71
2021/07/17 11:47:01;;;;;;;1999.90;999.90;;;24.70;99.90;;;;;;5066103;28;20404;-71
2021/07/17 11:49:38;;;;;;;1999.90;999.90;;;24.70;99.90;;;;;;5069545;28;20413;-71
2021/07/17 11:52:07;;;;;;;1999.90;999.90;;;24.80;99.90;;;;;;5069565;28;20460;-71
2021/07/17 11:54:36;;;;;;;1999.90;999.90;;;24.90;99.90;;;;;;5068636;28;20409;-71
2021/07/17 11:57:03;;;;;;;1999.90;999.90;;;25.10;99.90;;;;;;5069344;28;20421;-72
2021/07/17 11:59:28;;;;;;;1999.90;999.90;;;25.40;99.90;;;;;;5069702;28;20423;-72